createdAt,value
2019-02-27T00:01:51.583Z,12.03
2019-02-27T00:04:21.971Z,11.20
2019-02-27T00:06:50.515Z,9.23
2019-02-27T00:09:19.191Z,9.47
2019-02-27T00:11:47.787Z,9.43
2019-02-27T00:14:19.133Z,9.40
2019-02-27T00:17:08.310Z,8.03
2019-02-27T00:19:36.979Z,9.47
2019-02-27T00:22:06.176Z,9.37
2019-02-27T00:24:34.732Z,10.93
2019-02-27T00:27:03.361Z,14.37
2019-02-27T00:29:31.930Z,11.23
2019-02-27T00:32:00.478Z,13.67
2019-02-27T00:34:32.800Z,12.77
2019-02-27T00:36:59.282Z,11.63
2019-02-27T00:39:31.232Z,10.97
2019-02-27T00:41:59.445Z,12.87
2019-02-27T00:44:28.012Z,13.93
2019-02-27T00:46:56.582Z,17.67
2019-02-27T00:49:25.147Z,12.30
2019-02-27T00:51:53.715Z,9.23
2019-02-27T00:54:22.312Z,8.70
2019-02-27T00:56:50.943Z,9.60
2019-02-27T00:59:19.499Z,9.47
2019-02-27T01:01:53.143Z,10.73
2019-02-27T01:04:27.616Z,9.07
2019-02-27T01:06:56.162Z,8.27
2019-02-27T01:09:24.797Z,7.57
2019-02-27T01:11:53.338Z,13.07
2019-02-27T01:14:23.575Z,8.23
2019-02-27T01:16:53.175Z,8.13
2019-02-27T01:19:24.585Z,13.80
2019-02-27T01:21:54.700Z,12.37
2019-02-27T01:24:23.254Z,8.13
2019-02-27T01:26:51.810Z,7.80
2019-02-27T01:29:22.287Z,8.77
2019-02-27T01:35:31.331Z,7.10
2019-02-27T01:37:59.892Z,7.53
2019-02-27T01:40:29.990Z,7.17
2019-02-27T01:42:58.598Z,10.43
2019-02-27T01:45:27.158Z,7.83
2019-02-27T01:47:55.704Z,9.63
2019-02-27T01:50:31.928Z,9.20
2019-02-27T01:53:00.551Z,8.47
2019-02-27T01:55:29.166Z,8.73
2019-02-27T01:57:57.818Z,9.13
2019-02-27T02:00:26.608Z,9.57
2019-02-27T02:02:56.624Z,9.50
2019-02-27T02:05:27.363Z,8.80
2019-02-27T02:07:56.217Z,8.27
2019-02-27T02:10:28.061Z,8.67
2019-02-27T02:12:58.843Z,7.97
2019-02-27T02:15:39.384Z,7.20
2019-02-27T02:18:37.628Z,8.67
2019-02-27T02:21:15.184Z,9.23
2019-02-27T02:24:06.214Z,9.23
2019-02-27T02:26:49.650Z,11.07
2019-02-27T02:29:43.662Z,9.10
2019-02-27T02:32:51.997Z,35.67
2019-02-27T02:35:37.444Z,10.57
2019-02-27T02:38:31.071Z,8.87
2019-02-27T02:41:17.392Z,8.10
2019-02-27T02:43:49.020Z,9.10
2019-02-27T02:46:46.422Z,8.47
2019-02-27T02:49:26.919Z,8.60
2019-02-27T02:52:05.957Z,7.57
2019-02-27T02:54:56.837Z,7.90
2019-02-27T02:57:41.216Z,8.03
2019-02-27T03:00:37.851Z,11.00
2019-02-27T03:03:06.729Z,8.53
2019-02-27T03:06:04.422Z,8.90
2019-02-27T03:08:44.755Z,7.87
2019-02-27T03:11:44.342Z,8.37
2019-02-27T03:14:20.466Z,8.90
2019-02-27T03:16:57.984Z,8.93
2019-02-27T03:19:41.788Z,8.20
2019-02-27T03:22:26.111Z,8.87
2019-02-27T03:25:31.442Z,8.40
2019-02-27T03:28:11.429Z,8.27
2019-02-27T03:30:53.693Z,7.40
2019-02-27T03:33:27.263Z,8.30
2019-02-27T03:36:13.271Z,8.30
2019-02-27T03:39:00.045Z,8.43
2019-02-27T03:41:50.796Z,8.07
2019-02-27T03:44:34.471Z,7.97
2019-02-27T03:47:28.375Z,8.27
2019-02-27T03:50:23.862Z,7.73
2019-02-27T03:52:55.991Z,8.57
2019-02-27T03:55:37.702Z,8.07
2019-02-27T03:58:37.001Z,10.47
2019-02-27T04:01:15.679Z,8.40
2019-02-27T04:04:11.415Z,8.33
2019-02-27T04:06:57.569Z,10.93
2019-02-27T04:09:25.613Z,12.87
2019-02-27T04:11:53.900Z,10.63
2019-02-27T04:14:40.171Z,9.40
2019-02-27T04:17:07.311Z,10.07
2019-02-27T04:19:39.232Z,9.10
2019-02-27T04:22:06.055Z,13.27
2019-02-27T04:24:34.656Z,12.80
2019-02-27T04:27:03.257Z,13.30
2019-02-27T04:29:32.058Z,12.23
2019-02-27T04:32:00.616Z,12.10
2019-02-27T04:34:33.021Z,12.97
2019-02-27T04:36:59.451Z,11.27
2019-02-27T04:39:28.032Z,10.40
2019-02-27T04:41:56.628Z,10.83
2019-02-27T04:44:25.209Z,10.30
2019-02-27T04:46:54.992Z,9.87
2019-02-27T04:49:25.754Z,9.17
2019-02-27T04:51:55.362Z,9.33
2019-02-27T04:54:23.980Z,9.10
2019-02-27T04:56:55.075Z,9.30
2019-02-27T04:59:23.052Z,9.67
2019-02-27T05:01:52.011Z,9.30
2019-02-27T05:04:23.514Z,9.10
2019-02-27T05:06:54.650Z,10.33
2019-02-27T05:09:25.635Z,9.57
2019-02-27T05:11:54.174Z,9.90
2019-02-27T05:14:24.892Z,10.10
2019-02-27T05:16:52.958Z,10.00
2019-02-27T05:19:23.150Z,9.37
2019-02-27T05:21:52.579Z,12.80
2019-02-27T05:24:21.673Z,13.07
2019-02-27T05:26:50.214Z,12.17
2019-02-27T05:29:18.813Z,9.93
2019-02-27T05:31:47.373Z,9.87
2019-02-27T05:34:15.925Z,9.70
2019-02-27T05:36:46.046Z,10.80
2019-02-27T05:39:14.907Z,11.03
2019-02-27T05:41:46.032Z,9.80
2019-02-27T05:44:21.372Z,9.17
2019-02-27T05:46:47.162Z,9.67
2019-02-27T05:49:15.719Z,10.00
2019-02-27T05:51:44.339Z,10.07
2019-02-27T05:54:12.909Z,10.50
2019-02-27T05:56:41.433Z,10.07
2019-02-27T05:59:10.054Z,9.73
2019-02-27T06:01:38.848Z,11.10
2019-02-27T06:04:10.611Z,10.43
2019-02-27T06:06:39.207Z,10.00
2019-02-27T06:09:12.188Z,10.10
2019-02-27T06:11:42.779Z,10.67
2019-02-27T06:14:13.931Z,10.50
2019-02-27T06:16:42.494Z,11.07
2019-02-27T06:19:12.789Z,11.57
2019-02-27T06:21:42.655Z,10.73
2019-02-27T06:24:12.810Z,11.40
2019-02-27T06:26:41.493Z,10.87
2019-02-27T06:29:10.067Z,11.47
2019-02-27T06:31:39.522Z,11.10
2019-02-27T06:34:08.176Z,12.13
2019-02-27T06:36:41.860Z,11.43
2019-02-27T06:39:08.780Z,11.30
2019-02-27T06:41:37.482Z,10.97
2019-02-27T06:44:06.147Z,11.00
2019-02-27T06:46:34.743Z,10.93
2019-02-27T06:49:05.146Z,10.70
2019-02-27T06:51:35.749Z,10.40
2019-02-27T06:54:04.511Z,11.33
2019-02-27T06:56:33.149Z,10.57
2019-02-27T06:59:01.942Z,11.07
2019-02-27T07:01:30.615Z,11.13
2019-02-27T07:03:59.175Z,11.13
2019-02-27T07:06:27.748Z,9.90
2019-02-27T07:08:56.337Z,11.50
2019-02-27T07:11:24.899Z,10.30
2019-02-27T07:13:53.455Z,10.13
2019-02-27T07:16:23.764Z,9.50
2019-02-27T07:18:52.327Z,9.53
2019-02-27T07:21:21.451Z,10.00
2019-02-27T07:23:57.575Z,9.43
2019-02-27T07:26:22.799Z,9.83
2019-02-27T07:28:52.429Z,10.93
2019-02-27T07:31:23.492Z,10.03
2019-02-27T07:34:01.250Z,9.17
2019-02-27T07:36:38.533Z,10.67
2019-02-27T07:39:09.165Z,10.00
2019-02-27T07:41:41.549Z,9.63
2019-02-27T07:44:10.111Z,9.17
2019-02-27T07:46:40.294Z,10.40
2019-02-27T07:49:12.087Z,10.13
2019-02-27T07:51:40.654Z,10.07
2019-02-27T07:54:09.232Z,9.47
2019-02-27T07:56:37.873Z,10.30
2019-02-27T07:59:06.714Z,9.70
2019-02-27T08:01:43.459Z,10.03
2019-02-27T08:04:05.565Z,10.03
2019-02-27T08:06:35.055Z,10.00
2019-02-27T08:09:05.733Z,9.50
2019-02-27T08:11:34.319Z,9.63
2019-02-27T08:14:03.952Z,9.90
2019-02-27T08:16:36.754Z,9.60
2019-02-27T08:19:08.834Z,9.90
2019-02-27T08:21:37.339Z,9.93
2019-02-27T08:24:07.448Z,9.30
2019-02-27T08:26:36.583Z,9.40
2019-02-27T08:29:05.520Z,9.23
2019-02-27T08:31:34.364Z,9.53
2019-02-27T08:34:03.006Z,9.40
2019-02-27T08:36:33.149Z,10.30
2019-02-27T08:39:01.788Z,9.60
2019-02-27T08:41:32.163Z,10.17
2019-02-27T08:44:00.825Z,10.30
2019-02-27T08:46:38.069Z,8.43
2019-02-27T08:49:10.308Z,9.60
2019-02-27T08:51:43.987Z,10.67
2019-02-27T08:54:15.728Z,9.60
2019-02-27T08:56:47.171Z,10.43
2019-02-27T08:59:15.655Z,11.30
2019-02-27T09:01:45.913Z,11.50
2019-02-27T09:04:15.613Z,12.10
2019-02-27T09:06:54.426Z,12.27
2019-02-27T09:09:25.249Z,13.47
2019-02-27T09:11:57.040Z,13.73
2019-02-27T09:14:26.414Z,12.93
2019-02-27T09:16:55.009Z,11.80
2019-02-27T09:19:24.615Z,11.73
2019-02-27T09:21:53.791Z,11.60
2019-02-27T09:24:22.543Z,11.47
2019-02-27T09:26:51.095Z,11.93
2019-02-27T09:29:20.619Z,11.00
2019-02-27T09:31:51.195Z,11.10
2019-02-27T09:34:19.769Z,10.93
2019-02-27T09:36:49.265Z,11.17
2019-02-27T09:39:19.547Z,11.83
2019-02-27T09:41:51.202Z,11.57
2019-02-27T09:44:19.860Z,11.43
2019-02-27T09:46:49.941Z,10.63
2019-02-27T09:49:21.413Z,8.47
2019-02-27T09:51:55.870Z,8.73
2019-02-27T09:54:20.783Z,8.57
2019-02-27T09:56:49.358Z,9.73
2019-02-27T09:59:19.789Z,9.13
2019-02-27T10:01:48.232Z,8.20
2019-02-27T10:04:17.608Z,8.03
2019-02-27T10:06:47.218Z,8.00
2019-02-27T10:09:17.055Z,9.37
2019-02-27T10:11:45.669Z,7.77
2019-02-27T10:14:16.393Z,8.80
2019-02-27T10:16:45.511Z,8.70
2019-02-27T10:19:17.006Z,8.97
2019-02-27T10:21:48.016Z,9.63
2019-02-27T10:24:18.256Z,9.77
2019-02-27T10:26:49.747Z,8.93
2019-02-27T10:29:21.571Z,8.23
2019-02-27T10:31:51.695Z,9.00
2019-02-27T10:34:20.291Z,8.20
2019-02-27T10:36:48.915Z,8.67
2019-02-27T10:39:20.191Z,8.40
2019-02-27T10:41:50.597Z,8.40
2019-02-27T10:44:19.274Z,8.00
2019-02-27T10:46:51.983Z,8.97
2019-02-27T10:49:21.790Z,9.10
2019-02-27T10:51:50.543Z,9.33
2019-02-27T10:54:19.897Z,9.60
2019-02-27T10:56:48.569Z,10.17
2019-02-27T10:59:19.643Z,9.23
2019-02-27T11:01:50.794Z,8.20
2019-02-27T11:04:21.795Z,9.33
2019-02-27T11:06:59.168Z,8.83
2019-02-27T11:09:29.110Z,10.07
2019-02-27T11:11:57.672Z,10.50
2019-02-27T11:14:26.375Z,10.20
2019-02-27T11:16:55.507Z,10.03
2019-02-27T11:19:25.635Z,9.90
2019-02-27T11:21:58.393Z,8.77
2019-02-27T11:24:25.468Z,7.80
2019-02-27T11:26:54.105Z,8.90
2019-02-27T11:29:27.109Z,10.03
2019-02-27T11:31:55.696Z,10.03
2019-02-27T11:34:24.320Z,9.67
2019-02-27T11:36:57.515Z,9.10
2019-02-27T11:39:30.508Z,8.27
2019-02-27T11:41:59.619Z,8.67
2019-02-27T11:44:29.376Z,7.30
2019-02-27T11:46:59.042Z,7.30
2019-02-27T11:49:27.750Z,8.00
2019-02-27T11:51:57.023Z,7.73
2019-02-27T11:54:25.960Z,7.93
2019-02-27T11:56:56.917Z,7.40
2019-02-27T11:59:25.908Z,7.37
2019-02-27T12:01:56.192Z,7.07
2019-02-27T12:04:24.814Z,6.77
2019-02-27T12:06:55.567Z,7.70
2019-02-27T12:09:25.276Z,7.03
2019-02-27T12:11:54.260Z,6.77
2019-02-27T12:14:25.106Z,7.60
2019-02-27T12:16:53.658Z,7.03
2019-02-27T12:19:22.246Z,6.67
2019-02-27T12:21:50.828Z,7.33
2019-02-27T12:24:19.627Z,5.50
2019-02-27T12:26:48.360Z,5.97
2019-02-27T12:29:16.984Z,6.23
2019-02-27T12:31:48.379Z,6.53
2019-02-27T12:34:17.526Z,6.57
2019-02-27T12:36:49.925Z,5.70
2019-02-27T12:39:18.689Z,5.83
2019-02-27T12:41:48.428Z,5.67
2019-02-27T12:44:22.098Z,5.90
2019-02-27T12:46:56.032Z,6.10
2019-02-27T12:49:28.333Z,6.13
2019-02-27T12:52:02.080Z,5.97
2019-02-27T12:54:35.420Z,5.63
2019-02-27T12:57:04.108Z,5.63
2019-02-27T12:59:36.348Z,5.90
2019-02-27T13:02:35.608Z,5.40
2019-02-27T13:05:00.279Z,5.20
2019-02-27T13:07:28.752Z,5.27
2019-02-27T13:09:59.410Z,5.43
2019-02-27T13:12:31.993Z,5.07
2019-02-27T13:15:06.385Z,5.93
2019-02-27T13:17:31.125Z,4.73
2019-02-27T13:19:59.679Z,5.47
2019-02-27T13:22:29.196Z,5.50
2019-02-27T13:24:58.747Z,5.30
2019-02-27T13:27:27.667Z,5.70
2019-02-27T13:30:08.469Z,5.80
2019-02-27T13:32:27.573Z,6.30
2019-02-27T13:34:56.125Z,5.97
2019-02-27T13:37:24.708Z,6.47
2019-02-27T13:39:53.282Z,6.13
2019-02-27T13:42:22.102Z,6.03
2019-02-27T13:44:51.448Z,6.63
2019-02-27T13:47:20.027Z,6.90
2019-02-27T13:49:48.630Z,7.17
2019-02-27T13:52:18.217Z,6.67
2019-02-27T13:54:46.867Z,6.43
2019-02-27T13:57:17.833Z,7.20
2019-02-27T13:59:48.921Z,7.03
2019-02-27T14:02:20.200Z,7.63
2019-02-27T14:04:57.327Z,7.83
2019-02-27T14:07:26.432Z,7.07
2019-02-27T14:09:58.234Z,8.33
2019-02-27T14:12:29.937Z,7.27
2019-02-27T14:14:59.711Z,7.30
2019-02-27T14:17:28.570Z,7.17
2019-02-27T14:20:06.177Z,6.73
2019-02-27T14:22:40.359Z,7.67
2019-02-27T14:25:17.250Z,7.90
2019-02-27T14:27:47.453Z,7.50
2019-02-27T14:30:21.023Z,7.70
2019-02-27T14:32:49.587Z,8.20
2019-02-27T14:35:18.475Z,8.27
2019-02-27T14:37:50.226Z,7.97
2019-02-27T14:40:22.002Z,8.03
2019-02-27T14:42:54.031Z,8.70
2019-02-27T14:45:25.657Z,8.80
2019-02-27T14:47:54.278Z,7.67
2019-02-27T14:50:33.621Z,8.80
2019-02-27T14:53:00.613Z,9.00
2019-02-27T14:55:29.330Z,9.47
2019-02-27T14:58:00.383Z,9.60
2019-02-27T15:00:31.903Z,9.07
2019-02-27T15:03:07.594Z,10.20
2019-02-27T15:05:42.860Z,9.47
2019-02-27T15:08:11.622Z,9.90
2019-02-27T15:10:44.313Z,10.40
2019-02-27T15:13:16.353Z,11.00
2019-02-27T15:15:46.072Z,10.77
2019-02-27T15:18:23.072Z,10.53
2019-02-27T15:20:51.676Z,11.20
2019-02-27T15:23:24.550Z,11.87
2019-02-27T15:25:55.903Z,11.67
2019-02-27T15:28:25.414Z,11.87
2019-02-27T15:30:58.689Z,12.30
2019-02-27T15:33:26.990Z,12.93
2019-02-27T15:35:58.681Z,12.60
2019-02-27T15:38:29.084Z,12.33
2019-02-27T15:41:02.444Z,12.70
2019-02-27T15:43:28.107Z,13.10
2019-02-27T15:45:56.671Z,13.17
2019-02-27T15:48:25.240Z,13.97
2019-02-27T15:50:56.601Z,13.53
2019-02-27T15:53:24.060Z,13.73
2019-02-27T15:55:52.631Z,13.23
2019-02-27T15:58:21.931Z,13.93
2019-02-27T16:00:53.445Z,13.87
2019-02-27T16:03:23.566Z,14.33
2019-02-27T16:05:52.155Z,14.53
2019-02-27T16:08:23.421Z,14.37
2019-02-27T16:10:54.811Z,14.80
2019-02-27T16:13:21.695Z,14.20
2019-02-27T16:15:50.265Z,14.63
2019-02-27T16:18:18.880Z,15.17
2019-02-27T16:20:49.805Z,14.70
2019-02-27T16:23:17.707Z,14.33
2019-02-27T16:25:46.391Z,14.27
2019-02-27T16:28:16.616Z,13.30
2019-02-27T16:30:47.002Z,13.90
2019-02-27T16:33:23.581Z,13.20
2019-02-27T16:35:46.438Z,14.13
2019-02-27T16:38:16.310Z,13.50
2019-02-27T16:40:52.066Z,13.13
2019-02-27T16:43:19.606Z,12.63
2019-02-27T16:45:51.195Z,13.17
2019-02-27T16:48:19.774Z,13.67
2019-02-27T16:50:49.432Z,14.80
2019-02-27T16:53:19.499Z,14.27
2019-02-27T16:55:48.362Z,14.70
2019-02-27T16:58:16.998Z,13.33
2019-02-27T17:00:45.744Z,14.70
2019-02-27T17:03:14.857Z,15.07
2019-02-27T17:05:43.896Z,14.40
2019-02-27T17:08:12.510Z,14.77
2019-02-27T17:10:41.160Z,15.20
2019-02-27T17:13:14.662Z,13.57
2019-02-27T17:15:40.137Z,14.60
2019-02-27T17:18:08.714Z,14.03
2019-02-27T17:20:39.283Z,13.80
2019-02-27T17:23:10.821Z,13.70
2019-02-27T17:25:39.105Z,15.47
2019-02-27T17:28:09.796Z,13.90
2019-02-27T17:30:38.411Z,14.00
2019-02-27T17:33:08.569Z,13.40
2019-02-27T17:35:37.112Z,13.37
2019-02-27T17:38:06.948Z,14.63
2019-02-27T17:40:39.389Z,14.03
2019-02-27T17:43:10.212Z,14.57
2019-02-27T17:45:40.492Z,13.50
2019-02-27T17:48:12.328Z,14.17
2019-02-27T17:50:42.192Z,14.50
2019-02-27T17:53:11.746Z,15.40
2019-02-27T17:55:42.543Z,14.93
2019-02-27T17:58:20.491Z,15.17
2019-02-27T18:01:04.423Z,15.60
2019-02-27T18:03:36.648Z,16.20
2019-02-27T18:06:07.699Z,15.13
2019-02-27T18:08:38.297Z,16.13
2019-02-27T18:11:12.319Z,15.83
2019-02-27T18:13:41.859Z,16.80
2019-02-27T18:16:10.377Z,16.77
2019-02-27T18:18:43.534Z,17.40
2019-02-27T18:21:12.181Z,18.62
2019-02-27T18:23:44.363Z,17.83
2019-02-27T18:26:16.627Z,19.07
2019-02-27T18:28:51.901Z,20.00
2019-02-27T18:31:26.545Z,19.10
2019-02-27T18:33:55.416Z,20.80
2019-02-27T18:36:24.037Z,20.63
2019-02-27T18:38:52.726Z,20.80
2019-02-27T18:41:23.742Z,23.40
2019-02-27T18:43:52.917Z,24.20
2019-02-27T18:46:24.479Z,24.13
2019-02-27T18:48:55.296Z,24.73
2019-02-27T18:51:25.978Z,27.10
2019-02-27T18:53:55.725Z,25.80
2019-02-27T18:56:24.255Z,26.43
2019-02-27T18:59:02.791Z,27.70
2019-02-27T19:01:31.445Z,28.20
2019-02-27T19:04:01.413Z,27.50
2019-02-27T19:06:30.215Z,30.20
2019-02-27T19:09:01.597Z,28.00
2019-02-27T19:11:30.212Z,30.23
2019-02-27T19:13:58.794Z,31.73
2019-02-27T19:16:27.402Z,30.87
2019-02-27T19:18:55.960Z,32.93
2019-02-27T19:21:24.530Z,32.53
2019-02-27T19:23:53.367Z,33.77
2019-02-27T19:26:22.158Z,33.00
2019-02-27T19:28:51.182Z,33.27
2019-02-27T19:31:19.861Z,32.97
2019-02-27T19:33:48.492Z,34.80
2019-02-27T19:36:19.410Z,35.50
2019-02-27T19:38:48.772Z,37.63
2019-02-27T19:41:17.453Z,42.30
2019-02-27T19:43:48.908Z,38.13
2019-02-27T19:46:17.524Z,38.97
2019-02-27T19:48:46.110Z,37.93
2019-02-27T19:51:17.158Z,39.53
2019-02-27T19:53:44.952Z,40.27
2019-02-27T19:56:14.579Z,40.33
2019-02-27T19:58:43.124Z,40.83
2019-02-27T20:01:14.515Z,42.87
2019-02-27T20:03:43.137Z,43.87
2019-02-27T20:06:11.725Z,42.67
2019-02-27T20:08:44.491Z,44.40
2019-02-27T20:11:10.664Z,44.03
2019-02-27T20:13:39.655Z,43.83
2019-02-27T20:16:08.451Z,44.80
2019-02-27T20:18:37.011Z,44.87
2019-02-27T20:21:05.915Z,43.90
2019-02-27T20:23:35.839Z,45.97
2019-02-27T20:26:13.848Z,46.87
2019-02-27T20:28:37.692Z,45.40
2019-02-27T20:31:07.693Z,46.13
2019-02-27T20:33:37.197Z,47.80
2019-02-27T20:36:06.606Z,49.27
2019-02-27T20:38:35.167Z,48.87
2019-02-27T20:41:06.027Z,46.80
2019-02-27T20:43:34.013Z,49.03
2019-02-27T20:46:03.137Z,49.70
2019-02-27T20:48:32.351Z,47.83
2019-02-27T20:51:08.052Z,50.40
2019-02-27T20:53:37.512Z,47.87
2019-02-27T20:56:06.166Z,51.87
2019-02-27T20:58:34.792Z,50.83
2019-02-27T21:01:03.913Z,47.80
2019-02-27T21:03:32.596Z,50.67
2019-02-27T21:06:01.188Z,48.47
2019-02-27T21:08:29.999Z,47.93
2019-02-27T21:11:00.412Z,50.03
2019-02-27T21:13:29.074Z,47.60
2019-02-27T21:15:57.775Z,50.53
2019-02-27T21:18:29.104Z,50.30
2019-02-27T21:20:56.605Z,49.10
2019-02-27T21:23:25.254Z,48.47
2019-02-27T21:25:54.011Z,48.50
2019-02-27T21:28:22.555Z,47.70
2019-02-27T21:30:52.357Z,51.03
2019-02-27T21:33:42.508Z,48.80
2019-02-27T21:36:11.418Z,50.77
2019-02-27T21:38:41.025Z,52.20
2019-02-27T21:41:11.813Z,50.80
2019-02-27T21:43:40.031Z,53.23
2019-02-27T21:46:11.742Z,49.90
2019-02-27T21:48:40.251Z,49.73
2019-02-27T21:51:11.019Z,52.03
2019-02-27T21:53:39.126Z,51.00
2019-02-27T21:56:07.653Z,52.53
2019-02-27T21:58:37.407Z,51.27
2019-02-27T22:01:05.997Z,49.83
2019-02-27T22:03:35.194Z,50.67
2019-02-27T22:06:04.842Z,51.13
2019-02-27T22:08:36.155Z,51.90
2019-02-27T22:11:06.160Z,49.57
2019-02-27T22:13:37.385Z,51.63
2019-02-27T22:16:06.023Z,51.03
2019-02-27T22:18:34.717Z,52.27
2019-02-27T22:21:03.292Z,49.80
2019-02-27T22:23:31.843Z,51.27
2019-02-27T22:26:03.100Z,51.20
2019-02-27T22:28:30.803Z,48.83
2019-02-27T22:30:59.433Z,51.20
2019-02-27T22:33:27.999Z,50.33
2019-02-27T22:35:56.550Z,50.60
2019-02-27T22:38:26.626Z,50.63
2019-02-27T22:40:58.030Z,50.13
2019-02-27T22:43:29.478Z,50.23
2019-02-27T22:45:57.735Z,51.73
2019-02-27T22:48:28.648Z,51.80
2019-02-27T22:50:56.529Z,50.37
2019-02-27T22:53:26.235Z,53.77
2019-02-27T22:55:55.299Z,50.37
2019-02-27T22:58:27.461Z,52.37
2019-02-27T23:01:02.085Z,51.00
2019-02-27T23:03:51.508Z,50.37
2019-02-27T23:06:20.168Z,49.17
2019-02-27T23:08:48.919Z,51.73
2019-02-27T23:11:17.883Z,49.50
2019-02-27T23:13:48.264Z,51.30
2019-02-27T23:16:17.255Z,50.67
2019-02-27T23:18:47.520Z,48.53
2019-02-27T23:21:16.230Z,50.70
2019-02-27T23:23:44.906Z,50.63
2019-02-27T23:26:19.764Z,49.30
2019-02-27T23:28:45.639Z,48.47
2019-02-27T23:31:22.379Z,51.53
2019-02-27T23:34:08.609Z,49.90
2019-02-27T23:36:38.731Z,46.73
2019-02-27T23:39:09.394Z,47.43
2019-02-27T23:41:40.143Z,49.50
2019-02-27T23:44:08.514Z,46.90
2019-02-27T23:46:37.745Z,47.10
2019-02-27T23:49:08.622Z,46.33
2019-02-27T23:51:38.853Z,46.53
2019-02-27T23:54:07.675Z,45.17
2019-02-27T23:56:36.233Z,45.67
2019-02-27T23:59:04.921Z,47.10
